createdAt,value
2022-10-26T00:01:18.741Z,52.13
2022-10-26T00:06:25.322Z,16.00
2022-10-26T00:11:30.497Z,15.38
2022-10-26T00:16:34.192Z,12.80
2022-10-26T00:21:37.883Z,15.43
2022-10-26T00:26:43.163Z,15.32
2022-10-26T00:31:46.937Z,16.58
2022-10-26T00:36:50.637Z,15.48
2022-10-26T00:41:55.732Z,13.30
2022-10-26T00:46:59.422Z,13.43
2022-10-26T00:52:03.212Z,23.00
2022-10-26T00:57:08.915Z,21.60
2022-10-26T01:02:13.296Z,15.20
2022-10-26T01:07:17.363Z,20.92
2022-10-26T01:12:22.414Z,16.27
2022-10-26T01:17:44.281Z,15.90
2022-10-26T01:22:55.294Z,15.07
2022-10-26T01:28:03.757Z,14.05
2022-10-26T01:33:36.199Z,15.85
2022-10-26T01:38:53.541Z,15.02
2022-10-26T01:49:09.832Z,13.98
2022-10-26T01:54:13.476Z,16.65
2022-10-26T01:59:48.653Z,15.10
2022-10-26T02:05:09.057Z,15.85
2022-10-26T02:10:23.944Z,19.60
2022-10-26T02:15:35.156Z,17.05
2022-10-26T02:20:44.457Z,17.08
2022-10-26T02:25:54.648Z,17.00
2022-10-26T02:31:00.827Z,20.60
2022-10-26T02:36:10.125Z,14.38
2022-10-26T02:41:16.196Z,15.63
2022-10-26T02:46:24.128Z,17.58
2022-10-26T02:51:35.925Z,12.30
2022-10-26T02:56:48.219Z,12.93
2022-10-26T03:01:53.200Z,12.02
2022-10-26T03:06:58.612Z,12.63
2022-10-26T03:12:02.513Z,14.75
2022-10-26T03:17:06.272Z,15.02
2022-10-26T03:22:11.415Z,13.60
2022-10-26T03:27:15.216Z,12.75
2022-10-26T03:32:18.935Z,15.18
2022-10-26T03:37:24.056Z,17.00
2022-10-26T03:42:28.077Z,23.58
2022-10-26T03:47:31.857Z,14.52
2022-10-26T03:52:36.973Z,19.58
2022-10-26T03:57:44.258Z,16.37
2022-10-26T04:02:55.882Z,13.27
2022-10-26T04:08:03.232Z,17.42
2022-10-26T04:13:07.011Z,22.92
2022-10-26T04:18:13.040Z,12.40
2022-10-26T04:23:19.820Z,13.93
2022-10-26T04:28:23.536Z,13.70
2022-10-26T04:33:27.344Z,18.52
2022-10-26T04:38:32.468Z,18.40
2022-10-26T04:43:36.312Z,17.27
2022-10-26T04:48:40.401Z,12.93
2022-10-26T04:53:45.534Z,13.55
2022-10-26T04:58:49.490Z,17.23
2022-10-26T05:03:54.113Z,16.65
2022-10-26T05:08:59.335Z,22.80
2022-10-26T05:14:03.265Z,20.70
2022-10-26T05:19:06.965Z,15.38
2022-10-26T05:24:12.619Z,18.90
2022-10-26T05:29:16.411Z,18.70
2022-10-26T05:34:20.205Z,15.05
2022-10-26T05:39:25.285Z,16.27
2022-10-26T05:44:29.057Z,13.77
2022-10-26T05:49:32.807Z,18.77
2022-10-26T05:54:37.872Z,11.85
2022-10-26T05:59:42.174Z,14.20
2022-10-26T06:04:48.511Z,18.08
2022-10-26T06:09:54.736Z,14.13
2022-10-26T06:14:59.813Z,14.60
2022-10-26T06:20:18.255Z,17.90
2022-10-26T06:25:33.853Z,22.95
2022-10-26T06:30:38.040Z,16.40
2022-10-26T06:35:51.593Z,17.70
2022-10-26T06:40:58.442Z,17.52
2022-10-26T06:46:13.029Z,13.27
2022-10-26T06:51:18.382Z,17.02
2022-10-26T06:56:24.858Z,11.75
2022-10-26T07:01:28.792Z,14.93
2022-10-26T07:06:34.434Z,17.15
2022-10-26T07:11:42.307Z,18.48
2022-10-26T07:16:46.193Z,14.57
2022-10-26T07:21:50.059Z,18.48
2022-10-26T07:26:56.985Z,17.80
2022-10-26T07:32:00.685Z,21.42
2022-10-26T07:37:04.514Z,14.45
2022-10-26T07:42:10.249Z,16.27
2022-10-26T07:47:14.038Z,18.80
2022-10-26T07:52:17.818Z,17.40
2022-10-26T07:57:23.007Z,19.23
2022-10-26T08:02:27.080Z,21.58
2022-10-26T08:07:30.999Z,22.58
2022-10-26T08:12:36.177Z,17.10
2022-10-26T08:17:40.164Z,11.90
2022-10-26T08:22:43.914Z,14.07
2022-10-26T08:27:49.392Z,18.52
2022-10-26T08:32:59.897Z,12.40
2022-10-26T08:38:03.920Z,12.30
2022-10-26T08:43:17.569Z,11.45
2022-10-26T08:48:25.517Z,12.98
2022-10-26T08:53:35.090Z,21.08
2022-10-26T08:58:44.873Z,15.48
2022-10-26T09:03:48.921Z,11.55
2022-10-26T09:09:02.796Z,14.77
2022-10-26T09:14:14.841Z,8.77
2022-10-26T09:19:45.631Z,12.05
2022-10-26T09:24:54.839Z,8.13
2022-10-26T09:30:05.181Z,8.30
2022-10-26T09:35:16.929Z,9.30
2022-10-26T09:40:26.531Z,9.07
2022-10-26T09:45:36.797Z,7.45
2022-10-26T09:50:43.991Z,11.45
2022-10-26T09:55:52.053Z,9.20
2022-10-26T10:00:57.846Z,7.55
2022-10-26T10:06:17.561Z,7.18
2022-10-26T10:11:21.249Z,9.40
2022-10-26T10:16:27.496Z,9.05
2022-10-26T10:21:39.047Z,6.07
2022-10-26T10:26:57.996Z,8.57
2022-10-26T10:32:04.604Z,7.68
2022-10-26T10:37:23.424Z,12.23
2022-10-26T10:42:29.014Z,9.55
2022-10-26T10:57:55.577Z,9.07
2022-10-26T11:03:36.067Z,9.68
2022-10-26T11:08:47.654Z,11.30
2022-10-26T11:13:56.996Z,16.83
2022-10-26T11:19:06.035Z,15.30
2022-10-26T11:24:21.579Z,14.10
2022-10-26T11:29:38.251Z,9.02
2022-10-26T11:34:49.268Z,7.95
2022-10-26T11:40:03.594Z,13.73
2022-10-26T11:45:17.860Z,11.85
2022-10-26T11:50:24.096Z,7.70
2022-10-26T11:55:30.390Z,9.38
2022-10-26T12:00:35.919Z,9.88
2022-10-26T12:10:58.368Z,6.43
2022-10-26T12:16:08.364Z,5.20
2022-10-26T12:21:13.687Z,4.85
2022-10-26T12:31:45.223Z,7.07
2022-10-26T12:36:50.432Z,8.73
2022-10-26T12:41:59.206Z,6.38
2022-10-26T12:47:03.700Z,7.30
2022-10-26T12:52:21.099Z,16.77
2022-10-26T12:57:34.207Z,4.80
2022-10-26T13:02:53.073Z,7.38
2022-10-26T13:08:03.803Z,10.35
2022-10-26T13:13:10.147Z,7.72
2022-10-26T13:18:18.977Z,6.85
2022-10-26T13:23:26.969Z,7.22
2022-10-26T13:28:45.226Z,5.85
2022-10-26T13:33:53.367Z,9.23
2022-10-26T13:39:02.235Z,6.28
2022-10-26T13:44:16.613Z,7.38
2022-10-26T13:54:35.372Z,7.60
2022-10-26T13:59:45.531Z,9.32
2022-10-26T14:04:52.877Z,7.60
2022-10-26T14:09:58.915Z,6.00
2022-10-26T14:15:08.908Z,8.90
2022-10-26T14:20:20.006Z,9.10
2022-10-26T14:25:35.925Z,15.07
2022-10-26T14:30:52.409Z,12.80
2022-10-26T14:35:57.519Z,17.35
2022-10-26T14:41:01.562Z,9.63
2022-10-26T14:46:07.410Z,12.25
2022-10-26T14:51:18.000Z,9.88
2022-10-26T14:56:25.898Z,9.18
2022-10-26T15:01:48.273Z,10.00
2022-10-26T15:06:52.684Z,8.88
2022-10-26T15:11:56.581Z,12.13
2022-10-26T15:17:02.809Z,9.85
2022-10-26T15:22:06.734Z,8.32
2022-10-26T15:27:16.364Z,15.00
2022-10-26T15:32:28.357Z,13.75
2022-10-26T15:37:32.293Z,13.88
2022-10-26T15:42:38.879Z,25.30
2022-10-26T15:47:44.502Z,24.35
2022-10-26T15:52:49.431Z,34.08
2022-10-26T15:57:53.738Z,43.08
2022-10-26T16:02:58.954Z,28.30
2022-10-26T16:08:02.858Z,22.25
2022-10-26T16:13:12.244Z,19.73
2022-10-26T16:18:17.354Z,93.32
2022-10-26T16:23:21.198Z,124.03
2022-10-26T16:28:24.930Z,25.38
2022-10-26T16:33:30.458Z,51.78
2022-10-26T16:38:34.642Z,35.83
2022-10-26T16:43:40.298Z,49.88
2022-10-26T16:53:50.978Z,81.57
2022-10-26T16:58:57.737Z,73.75
2022-10-26T17:09:07.626Z,69.00
2022-10-26T17:14:11.745Z,68.47
2022-10-26T17:19:17.081Z,71.68
2022-10-26T17:24:21.033Z,65.30
2022-10-26T17:29:25.071Z,65.80
2022-10-26T17:34:30.375Z,75.68
2022-10-26T17:39:34.272Z,78.78
2022-10-26T17:44:39.189Z,75.28
2022-10-26T17:49:44.542Z,53.87
2022-10-26T17:54:48.265Z,63.65
2022-10-26T17:59:52.193Z,67.38
2022-10-26T18:04:57.438Z,52.58
2022-10-26T18:10:14.048Z,48.22
2022-10-26T18:15:25.555Z,64.30
2022-10-26T18:20:30.909Z,55.70
2022-10-26T18:25:36.233Z,48.65
2022-10-26T18:30:40.247Z,42.30
2022-10-26T18:35:46.385Z,37.60
2022-10-26T18:40:53.852Z,28.40
2022-10-26T18:46:05.580Z,23.08
2022-10-26T18:51:12.464Z,38.97
2022-10-26T18:56:18.920Z,28.75
2022-10-26T19:01:24.771Z,33.17
2022-10-26T19:06:32.622Z,27.00
2022-10-26T19:11:37.145Z,91.70
2022-10-26T19:16:45.846Z,94.10
2022-10-26T19:21:53.936Z,45.88
2022-10-26T19:26:57.898Z,25.75
2022-10-26T19:32:02.956Z,26.08
2022-10-26T19:37:09.589Z,37.20
2022-10-26T19:42:13.538Z,28.70
2022-10-26T19:47:17.336Z,23.83
2022-10-26T19:52:22.548Z,25.77
2022-10-26T19:57:26.401Z,30.65
2022-10-26T20:02:30.156Z,26.95
2022-10-26T20:07:35.495Z,30.50
2022-10-26T20:12:39.392Z,24.13
2022-10-26T20:17:43.131Z,28.75
2022-10-26T20:22:48.606Z,25.25
2022-10-26T20:27:52.945Z,27.90
2022-10-26T20:32:57.689Z,28.60
2022-10-26T20:38:04.012Z,32.58
2022-10-26T20:43:10.228Z,32.22
2022-10-26T20:48:14.982Z,275.35
2022-10-26T20:58:39.147Z,135.40
2022-10-26T21:03:43.076Z,96.18
2022-10-26T21:08:51.445Z,89.07
2022-10-26T21:13:56.046Z,35.50
2022-10-26T21:19:01.534Z,35.20
2022-10-26T21:24:07.737Z,28.48
2022-10-26T21:29:12.128Z,24.33
2022-10-26T21:34:16.050Z,29.92
2022-10-26T21:39:21.263Z,28.95
2022-10-26T21:44:40.348Z,25.15
2022-10-26T21:49:45.026Z,30.52
2022-10-26T21:54:50.264Z,31.75
2022-10-26T21:59:54.182Z,28.95
2022-10-26T22:04:57.987Z,32.08
2022-10-26T22:10:11.168Z,33.65
2022-10-26T22:15:15.453Z,25.70
2022-10-26T22:20:19.513Z,28.05
2022-10-26T22:25:24.633Z,23.85
2022-10-26T22:30:28.411Z,24.52
2022-10-26T22:35:32.165Z,26.75
2022-10-26T22:40:37.376Z,24.25
2022-10-26T22:45:41.226Z,24.55
2022-10-26T22:50:45.042Z,26.02
2022-10-26T22:55:50.540Z,22.75
2022-10-26T23:00:54.297Z,25.05
2022-10-26T23:05:58.429Z,21.23
2022-10-26T23:11:06.618Z,26.10
2022-10-26T23:16:12.493Z,32.50
2022-10-26T23:21:17.711Z,22.23
2022-10-26T23:26:23.299Z,21.90
2022-10-26T23:31:28.532Z,22.02
2022-10-26T23:36:32.431Z,21.45
2022-10-26T23:41:37.571Z,23.08
2022-10-26T23:46:41.341Z,22.37
2022-10-26T23:51:45.077Z,24.00
2022-10-26T23:56:50.286Z,22.80
